createdAt,value
2023-05-14T00:01:00.547Z,11.57
2023-05-14T00:03:27.249Z,11.98
2023-05-14T00:05:53.796Z,11.80
2023-05-14T00:08:20.349Z,11.93
2023-05-14T00:10:46.994Z,11.05
2023-05-14T00:13:13.724Z,11.63
2023-05-14T00:15:40.206Z,11.98
2023-05-14T00:18:07.119Z,11.32
2023-05-14T00:20:33.600Z,11.37
2023-05-14T00:23:01.021Z,11.50
2023-05-14T00:25:27.652Z,11.52
2023-05-14T00:27:54.080Z,11.63
2023-05-14T00:30:20.706Z,11.38
2023-05-14T00:32:47.170Z,11.63
2023-05-14T00:35:13.632Z,11.80
2023-05-14T00:37:40.080Z,11.13
2023-05-14T00:40:08.510Z,11.65
2023-05-14T00:42:35.021Z,11.70
2023-05-14T00:45:01.508Z,11.37
2023-05-14T00:47:28.163Z,10.82
2023-05-14T00:49:54.599Z,11.32
2023-05-14T00:52:22.068Z,11.68
2023-05-14T00:54:49.285Z,11.35
2023-05-14T00:57:15.807Z,11.40
2023-05-14T00:59:42.773Z,11.15
2023-05-14T01:02:09.384Z,11.20
2023-05-14T01:04:36.185Z,11.35
2023-05-14T01:07:27.596Z,11.38
2023-05-14T01:10:04.087Z,11.33
2023-05-14T01:12:40.756Z,11.38
2023-05-14T01:15:19.346Z,11.27
2023-05-14T01:17:52.095Z,11.15
2023-05-14T01:20:18.692Z,11.63
2023-05-14T01:22:45.356Z,11.23
2023-05-14T01:25:11.974Z,11.20
2023-05-14T01:27:52.850Z,10.77
2023-05-14T01:30:29.366Z,11.00
2023-05-14T01:32:58.865Z,10.75
2023-05-14T01:35:27.727Z,11.07
2023-05-14T01:37:56.746Z,11.55
2023-05-14T01:40:24.253Z,11.10
2023-05-14T01:42:51.964Z,10.57
2023-05-14T01:45:21.357Z,10.98
2023-05-14T01:47:48.025Z,11.10
2023-05-14T01:50:14.513Z,11.00
2023-05-14T01:52:41.039Z,11.30
2023-05-14T01:55:07.892Z,11.05
2023-05-14T01:57:34.427Z,11.50
2023-05-14T02:00:00.872Z,10.60
2023-05-14T02:02:27.324Z,10.85
2023-05-14T02:04:53.812Z,11.20
2023-05-14T02:07:20.233Z,10.82
2023-05-14T02:09:46.684Z,10.93
2023-05-14T02:12:13.124Z,11.27
2023-05-14T02:14:39.615Z,10.65
2023-05-14T02:17:06.076Z,11.48
2023-05-14T02:19:32.503Z,11.35
2023-05-14T02:22:00.202Z,11.32
2023-05-14T02:24:27.007Z,11.80
2023-05-14T02:26:53.460Z,11.90
2023-05-14T02:29:20.408Z,11.35
2023-05-14T02:31:46.873Z,10.85
2023-05-14T02:34:13.385Z,11.52
2023-05-14T02:36:40.022Z,11.47
2023-05-14T02:39:06.657Z,11.52
2023-05-14T02:41:33.124Z,11.57
2023-05-14T02:43:59.677Z,12.05
2023-05-14T02:46:26.233Z,11.65
2023-05-14T02:48:52.802Z,11.33
2023-05-14T02:51:20.137Z,11.68
2023-05-14T02:53:46.908Z,11.38
2023-05-14T02:56:13.291Z,11.40
2023-05-14T02:58:39.782Z,11.70
2023-05-14T03:01:06.216Z,11.37
2023-05-14T03:03:33.830Z,11.95
2023-05-14T03:06:00.843Z,11.13
2023-05-14T03:08:27.266Z,11.75
2023-05-14T03:10:53.683Z,11.50
2023-05-14T03:13:20.813Z,11.37
2023-05-14T03:15:47.678Z,11.70
2023-05-14T03:18:14.445Z,11.77
2023-05-14T03:20:41.617Z,11.80
2023-05-14T03:23:08.104Z,11.45
2023-05-14T03:25:34.582Z,11.60
2023-05-14T03:28:01.001Z,11.38
2023-05-14T03:30:27.560Z,11.63
2023-05-14T03:32:54.210Z,11.43
2023-05-14T03:35:20.709Z,11.57
2023-05-14T03:37:47.133Z,11.87
2023-05-14T03:40:13.525Z,12.07
2023-05-14T03:42:39.954Z,11.20
2023-05-14T03:45:07.133Z,11.35
2023-05-14T03:47:33.567Z,11.40
2023-05-14T03:50:00.100Z,11.37
2023-05-14T03:52:26.552Z,11.63
2023-05-14T03:54:52.963Z,11.25
2023-05-14T03:57:19.351Z,11.07
2023-05-14T03:59:45.739Z,11.25
2023-05-14T04:02:12.227Z,11.20
2023-05-14T04:04:38.743Z,11.48
2023-05-14T04:07:05.252Z,10.98
2023-05-14T04:09:31.777Z,10.90
2023-05-14T04:11:58.209Z,11.68
2023-05-14T04:14:24.879Z,10.33
2023-05-14T04:16:51.455Z,11.38
2023-05-14T04:19:18.491Z,10.98
2023-05-14T04:21:45.256Z,10.77
2023-05-14T04:24:11.680Z,11.15
2023-05-14T04:26:38.066Z,10.50
2023-05-14T04:29:04.465Z,11.32
2023-05-14T04:31:31.653Z,10.90
2023-05-14T04:33:58.158Z,11.10
2023-05-14T04:36:24.838Z,11.20
2023-05-14T04:38:51.828Z,10.60
2023-05-14T04:41:18.272Z,10.80
2023-05-14T04:43:44.706Z,11.30
2023-05-14T04:46:11.519Z,11.48
2023-05-14T04:48:38.122Z,11.02
2023-05-14T04:51:06.348Z,11.00
2023-05-14T04:53:33.576Z,10.63
2023-05-14T04:55:59.985Z,10.52
2023-05-14T04:58:28.858Z,10.80
2023-05-14T05:00:55.324Z,10.55
2023-05-14T05:03:21.875Z,10.70
2023-05-14T05:05:48.383Z,10.10
2023-05-14T05:08:14.884Z,10.48
2023-05-14T05:10:41.378Z,10.73
2023-05-14T05:13:07.822Z,10.13
2023-05-14T05:15:34.259Z,10.77
2023-05-14T05:18:00.854Z,10.10
2023-05-14T05:20:28.278Z,9.98
2023-05-14T05:22:54.880Z,10.18
2023-05-14T05:25:21.556Z,10.05
2023-05-14T05:27:48.004Z,9.90
2023-05-14T05:30:14.430Z,10.15
2023-05-14T05:32:41.076Z,10.48
2023-05-14T05:35:07.795Z,9.88
2023-05-14T05:37:34.225Z,10.15
2023-05-14T05:40:00.757Z,10.30
2023-05-14T05:42:27.220Z,10.45
2023-05-14T05:44:53.652Z,10.35
2023-05-14T05:47:20.087Z,10.30
2023-05-14T05:49:46.576Z,10.57
2023-05-14T05:52:13.298Z,10.53
2023-05-14T05:54:39.886Z,10.43
2023-05-14T05:57:06.298Z,10.68
2023-05-14T05:59:32.824Z,11.25
2023-05-14T06:01:59.315Z,8.88
2023-05-14T06:04:25.722Z,8.27
2023-05-14T06:06:52.358Z,8.43
2023-05-14T06:09:18.733Z,7.45
2023-05-14T06:11:45.230Z,8.88
2023-05-14T06:14:11.674Z,9.18
2023-05-14T06:16:38.195Z,8.10
2023-05-14T06:19:04.723Z,8.32
2023-05-14T06:21:31.373Z,10.15
2023-05-14T06:23:57.811Z,9.25
2023-05-14T06:26:24.258Z,9.95
2023-05-14T06:28:50.638Z,8.93
2023-05-14T06:31:17.552Z,9.32
2023-05-14T06:33:44.345Z,10.65
2023-05-14T06:36:10.901Z,9.68
2023-05-14T06:38:37.687Z,9.73
2023-05-14T06:41:04.138Z,9.10
2023-05-14T06:43:30.632Z,10.02
2023-05-14T06:45:57.122Z,8.77
2023-05-14T06:48:23.681Z,9.52
2023-05-14T06:50:50.242Z,9.13
2023-05-14T06:53:17.038Z,9.37
2023-05-14T06:55:43.522Z,8.90
2023-05-14T06:58:09.983Z,9.20
2023-05-14T07:00:36.403Z,8.18
2023-05-14T07:03:02.952Z,9.40
2023-05-14T07:05:29.512Z,8.50
2023-05-14T07:07:55.997Z,8.98
2023-05-14T07:10:23.088Z,8.85
2023-05-14T07:12:49.906Z,8.68
2023-05-14T07:15:16.616Z,8.73
2023-05-14T07:17:43.093Z,8.70
2023-05-14T07:20:10.322Z,8.55
2023-05-14T07:22:36.779Z,8.93
2023-05-14T07:25:03.536Z,7.32
2023-05-14T07:27:29.974Z,7.68
2023-05-14T07:29:56.461Z,7.70
2023-05-14T07:32:25.146Z,7.10
2023-05-14T07:34:51.735Z,8.55
2023-05-14T07:37:18.798Z,7.20
2023-05-14T07:39:45.262Z,7.22
2023-05-14T07:42:13.744Z,5.93
2023-05-14T07:44:46.016Z,7.50
2023-05-14T07:47:12.474Z,5.45
2023-05-14T07:49:38.952Z,6.72
2023-05-14T07:52:05.615Z,6.25
2023-05-14T07:54:32.037Z,6.20
2023-05-14T07:56:58.436Z,6.55
2023-05-14T07:59:24.966Z,6.60
2023-05-14T08:01:51.511Z,6.65
2023-05-14T08:04:18.192Z,6.43
2023-05-14T08:06:44.703Z,6.40
2023-05-14T08:09:11.278Z,6.85
2023-05-14T08:11:37.707Z,6.40
2023-05-14T08:14:04.123Z,6.85
2023-05-14T08:16:30.638Z,6.75
2023-05-14T08:18:57.138Z,6.57
2023-05-14T08:21:28.080Z,6.72
2023-05-14T08:23:54.476Z,7.18
2023-05-14T08:26:21.943Z,6.88
2023-05-14T08:28:48.373Z,6.85
2023-05-14T08:31:14.894Z,7.80
2023-05-14T08:33:41.356Z,6.65
2023-05-14T08:36:08.012Z,7.00
2023-05-14T08:38:34.447Z,6.75
2023-05-14T08:41:01.151Z,6.60
2023-05-14T08:43:35.861Z,6.70
2023-05-14T08:46:06.015Z,6.35
2023-05-14T08:48:34.409Z,6.22
2023-05-14T08:51:02.005Z,6.30
2023-05-14T08:53:28.543Z,6.60
2023-05-14T08:55:55.057Z,6.00
2023-05-14T08:58:21.657Z,6.57
2023-05-14T09:00:48.254Z,6.95
2023-05-14T09:03:15.971Z,6.63
2023-05-14T09:05:42.770Z,6.75
2023-05-14T09:08:09.188Z,6.43
2023-05-14T09:10:35.569Z,6.30
2023-05-14T09:13:02.001Z,7.05
2023-05-14T09:15:29.621Z,6.25
2023-05-14T09:17:57.016Z,7.05
2023-05-14T09:20:25.073Z,6.70
2023-05-14T09:22:54.848Z,6.50
2023-05-14T09:25:27.267Z,6.90
2023-05-14T09:27:56.197Z,6.00
2023-05-14T09:30:25.482Z,6.18
2023-05-14T09:32:54.489Z,6.30
2023-05-14T09:35:24.436Z,5.95
2023-05-14T09:37:53.676Z,6.10
2023-05-14T09:40:22.395Z,6.50
2023-05-14T09:42:49.561Z,6.40
2023-05-14T09:45:16.727Z,5.90
2023-05-14T09:47:43.288Z,6.20
2023-05-14T09:50:09.981Z,6.70
2023-05-14T09:52:37.305Z,6.25
2023-05-14T09:55:04.194Z,6.32
2023-05-14T09:57:30.934Z,6.30
2023-05-14T09:59:57.392Z,6.07
2023-05-14T10:02:38.528Z,6.15
2023-05-14T10:05:07.037Z,6.57
2023-05-14T10:07:43.006Z,6.05
2023-05-14T10:10:15.277Z,6.10
2023-05-14T10:12:44.758Z,6.70
2023-05-14T10:15:19.579Z,5.85
2023-05-14T10:17:50.011Z,6.47
2023-05-14T10:20:17.655Z,6.10
2023-05-14T10:22:44.244Z,5.93
2023-05-14T10:25:11.246Z,5.90
2023-05-14T10:27:38.186Z,5.93
2023-05-14T10:30:10.263Z,6.18
2023-05-14T10:32:37.932Z,5.90
2023-05-14T10:35:16.632Z,5.90
2023-05-14T10:37:44.749Z,5.53
2023-05-14T10:40:12.984Z,5.70
2023-05-14T10:42:40.947Z,5.55
2023-05-14T10:45:11.567Z,5.50
2023-05-14T10:47:40.534Z,5.57
2023-05-14T10:50:10.037Z,5.28
2023-05-14T10:52:36.961Z,5.32
2023-05-14T10:55:08.282Z,5.80
2023-05-14T10:57:38.105Z,5.53
2023-05-14T11:00:10.711Z,5.10
2023-05-14T11:02:39.311Z,5.50
2023-05-14T11:05:15.574Z,5.50
2023-05-14T11:07:48.739Z,5.60
2023-05-14T11:10:17.463Z,5.40
2023-05-14T11:12:48.806Z,6.50
2023-05-14T11:15:18.472Z,5.68
2023-05-14T11:17:46.922Z,5.55
2023-05-14T11:20:14.065Z,5.85
2023-05-14T11:22:41.899Z,5.97
2023-05-14T11:25:09.578Z,5.80
2023-05-14T11:27:38.668Z,5.95
2023-05-14T11:30:06.618Z,5.78
2023-05-14T11:32:33.373Z,5.75
2023-05-14T11:34:59.788Z,5.82
2023-05-14T11:37:26.194Z,5.80
2023-05-14T11:39:54.331Z,6.00
2023-05-14T11:42:22.226Z,5.90
2023-05-14T11:44:52.000Z,5.78
2023-05-14T11:47:20.322Z,5.53
2023-05-14T11:49:47.941Z,5.53
2023-05-14T11:52:16.341Z,5.60
2023-05-14T11:54:44.273Z,5.72
2023-05-14T11:57:21.849Z,5.70
2023-05-14T11:59:55.607Z,5.70
2023-05-14T12:02:23.002Z,5.40
2023-05-14T12:04:54.801Z,5.78
2023-05-14T12:07:21.318Z,6.13
2023-05-14T12:09:49.701Z,5.80
2023-05-14T12:12:21.343Z,5.53
2023-05-14T12:14:49.371Z,5.50
2023-05-14T12:17:20.816Z,5.60
2023-05-14T12:19:54.324Z,5.28
2023-05-14T12:22:22.997Z,5.45
2023-05-14T12:24:54.551Z,5.50
2023-05-14T12:27:26.164Z,4.93
2023-05-14T12:30:20.569Z,4.90
2023-05-14T12:32:51.896Z,5.60
2023-05-14T12:35:18.687Z,5.10
2023-05-14T12:37:45.175Z,5.00
2023-05-14T12:40:11.898Z,5.50
2023-05-14T12:42:38.369Z,5.13
2023-05-14T12:45:08.737Z,5.45
2023-05-14T12:47:36.311Z,5.20
2023-05-14T12:50:03.543Z,5.60
2023-05-14T12:54:59.307Z,5.10
2023-05-14T12:57:27.730Z,5.30
2023-05-14T12:59:55.251Z,5.20
2023-05-14T13:02:21.943Z,5.28
2023-05-14T13:04:48.379Z,4.87
2023-05-14T13:07:15.521Z,5.60
2023-05-14T13:09:41.934Z,5.22
2023-05-14T13:12:09.044Z,5.32
2023-05-14T13:14:36.419Z,5.90
2023-05-14T13:17:04.237Z,5.27
2023-05-14T13:19:30.776Z,5.68
2023-05-14T13:21:57.398Z,5.80
2023-05-14T13:24:25.014Z,5.38
2023-05-14T13:26:51.499Z,6.38
2023-05-14T13:29:17.952Z,5.53
2023-05-14T13:31:44.381Z,5.30
2023-05-14T13:34:10.842Z,5.10
2023-05-14T13:36:39.629Z,5.65
2023-05-14T13:39:06.880Z,5.32
2023-05-14T13:41:37.656Z,5.10
2023-05-14T13:44:04.684Z,5.47
2023-05-14T13:46:31.158Z,5.55
2023-05-14T13:48:57.561Z,5.22
2023-05-14T13:51:23.975Z,5.55
2023-05-14T13:53:50.539Z,4.97
2023-05-14T13:56:16.963Z,5.20
2023-05-14T13:58:43.445Z,5.03
2023-05-14T14:01:09.872Z,4.97
2023-05-14T14:03:36.386Z,4.70
2023-05-14T14:06:03.109Z,5.23
2023-05-14T14:08:29.602Z,5.10
2023-05-14T14:10:56.064Z,5.55
2023-05-14T14:13:22.962Z,5.10
2023-05-14T14:15:50.220Z,5.80
2023-05-14T14:18:16.753Z,5.40
2023-05-14T14:20:43.227Z,5.20
2023-05-14T14:23:09.630Z,5.50
2023-05-14T14:25:36.040Z,5.38
2023-05-14T14:28:02.473Z,4.82
2023-05-14T14:30:28.943Z,5.27
2023-05-14T14:32:55.517Z,5.00
2023-05-14T14:35:22.218Z,5.00
2023-05-14T14:37:50.711Z,5.07
2023-05-14T14:40:17.273Z,4.88
2023-05-14T14:42:44.297Z,5.20
2023-05-14T14:45:11.773Z,5.07
2023-05-14T14:47:38.223Z,5.18
2023-05-14T14:50:05.899Z,4.93
2023-05-14T14:52:32.385Z,5.45
2023-05-14T14:54:58.852Z,5.43
2023-05-14T14:57:26.712Z,5.50
2023-05-14T14:59:53.113Z,5.07
2023-05-14T15:02:20.014Z,5.35
2023-05-14T15:04:46.475Z,5.60
2023-05-14T15:07:13.035Z,5.10
2023-05-14T15:09:39.531Z,5.10
2023-05-14T15:12:06.355Z,5.25
2023-05-14T15:14:32.838Z,5.35
2023-05-14T15:16:59.325Z,5.10
2023-05-14T15:19:25.765Z,4.90
2023-05-14T15:21:52.432Z,4.93
2023-05-14T15:24:18.872Z,5.00
2023-05-14T15:26:45.746Z,4.63
2023-05-14T15:29:12.178Z,4.70
2023-05-14T15:31:39.753Z,4.93
2023-05-14T15:34:06.358Z,4.40
2023-05-14T15:36:32.861Z,4.50
2023-05-14T15:38:59.902Z,4.88
2023-05-14T15:41:28.683Z,4.90
2023-05-14T15:43:56.072Z,5.17
2023-05-14T15:46:23.671Z,5.75
2023-05-14T15:48:50.172Z,5.57
2023-05-14T15:51:16.682Z,5.45
2023-05-14T15:53:43.159Z,5.57
2023-05-14T15:56:09.915Z,6.20
2023-05-14T15:58:36.359Z,6.53
2023-05-14T16:01:02.973Z,6.85
2023-05-14T16:03:29.466Z,6.30
2023-05-14T16:05:56.094Z,6.60
2023-05-14T16:08:22.594Z,6.50
2023-05-14T16:10:48.987Z,6.30
2023-05-14T16:13:15.538Z,6.55
2023-05-14T16:15:42.183Z,6.80
2023-05-14T16:18:08.918Z,6.50
2023-05-14T16:20:35.404Z,6.70
2023-05-14T16:23:01.794Z,6.93
2023-05-14T16:25:30.592Z,6.38
2023-05-14T16:27:57.430Z,6.53
2023-05-14T16:30:24.188Z,6.78
2023-05-14T16:32:50.924Z,6.80
2023-05-14T16:35:17.402Z,7.10
2023-05-14T16:37:43.796Z,6.45
2023-05-14T16:40:11.727Z,6.40
2023-05-14T16:42:38.684Z,6.30
2023-05-14T16:45:05.599Z,7.13
2023-05-14T16:47:32.048Z,5.93
2023-05-14T16:49:58.595Z,6.43
2023-05-14T16:52:25.131Z,6.75
2023-05-14T16:54:51.554Z,5.40
2023-05-14T16:57:18.009Z,6.43
2023-05-14T16:59:45.329Z,5.78
2023-05-14T17:02:11.740Z,6.95
2023-05-14T17:04:41.836Z,5.90
2023-05-14T17:07:08.460Z,6.88
2023-05-14T17:09:34.991Z,6.63
2023-05-14T17:12:01.461Z,6.47
2023-05-14T17:14:27.902Z,6.93
2023-05-14T17:16:54.818Z,6.63
2023-05-14T17:19:21.267Z,6.57
2023-05-14T17:21:47.804Z,6.20
2023-05-14T17:24:14.203Z,7.40
2023-05-14T17:26:40.699Z,6.65
2023-05-14T17:29:07.098Z,6.90
2023-05-14T17:31:33.574Z,6.57
2023-05-14T17:33:59.978Z,7.57
2023-05-14T17:36:28.425Z,7.22
2023-05-14T17:38:54.986Z,6.90
2023-05-14T17:41:21.605Z,6.93
2023-05-14T17:43:48.042Z,7.43
2023-05-14T17:46:14.516Z,6.30
2023-05-14T17:48:40.975Z,7.15
2023-05-14T17:51:07.437Z,7.18
2023-05-14T17:53:33.838Z,7.50
2023-05-14T17:56:00.260Z,6.90
2023-05-14T17:58:26.784Z,7.07
2023-05-14T18:00:53.385Z,7.13
2023-05-14T18:03:20.368Z,7.35
2023-05-14T18:05:47.285Z,7.57
2023-05-14T18:08:14.539Z,7.32
2023-05-14T18:10:40.952Z,7.30
2023-05-14T18:13:07.394Z,6.80
2023-05-14T18:15:35.225Z,6.85
2023-05-14T18:18:01.709Z,6.60
2023-05-14T18:20:28.284Z,7.13
2023-05-14T18:22:54.707Z,6.57
2023-05-14T18:25:21.110Z,6.40
2023-05-14T18:27:47.602Z,5.63
2023-05-14T18:30:15.345Z,7.03
2023-05-14T18:32:43.872Z,6.65
2023-05-14T18:35:11.616Z,6.60
2023-05-14T18:37:38.167Z,6.30
2023-05-14T18:40:05.221Z,7.30
2023-05-14T18:42:31.694Z,6.40
2023-05-14T18:44:58.151Z,6.22
2023-05-14T18:47:24.790Z,6.37
2023-05-14T18:49:55.093Z,6.38
2023-05-14T18:52:22.857Z,6.70
2023-05-14T18:54:50.829Z,6.50
2023-05-14T18:57:17.326Z,6.57
2023-05-14T18:59:43.761Z,6.90
2023-05-14T19:02:10.187Z,6.70
2023-05-14T19:04:50.624Z,6.18
2023-05-14T19:07:18.792Z,6.10
2023-05-14T19:09:46.465Z,6.72
2023-05-14T19:12:13.400Z,6.30
2023-05-14T19:14:39.815Z,6.07
2023-05-14T19:17:06.286Z,6.43
2023-05-14T19:19:32.768Z,6.40
2023-05-14T19:21:59.267Z,6.10
2023-05-14T19:24:25.849Z,6.27
2023-05-14T19:26:52.637Z,6.55
2023-05-14T19:29:19.196Z,6.70
2023-05-14T19:31:45.748Z,6.45
2023-05-14T19:34:12.188Z,6.65
2023-05-14T19:36:38.742Z,6.33
2023-05-14T19:39:05.240Z,7.47
2023-05-14T19:41:31.637Z,6.95
2023-05-14T19:43:58.116Z,6.05
2023-05-14T19:46:24.663Z,6.32
2023-05-14T19:48:51.093Z,6.40
2023-05-14T19:51:17.519Z,6.07
2023-05-14T19:53:43.966Z,6.20
2023-05-14T19:56:10.910Z,6.70
2023-05-14T19:58:37.374Z,6.00
2023-05-14T20:01:04.350Z,6.20
2023-05-14T20:03:30.925Z,5.97
2023-05-14T20:05:57.965Z,6.60
2023-05-14T20:08:24.958Z,6.18
2023-05-14T20:10:54.066Z,6.13
2023-05-14T20:13:22.376Z,6.07
2023-05-14T20:15:50.333Z,6.30
2023-05-14T20:18:16.892Z,6.47
2023-05-14T20:20:43.881Z,6.50
2023-05-14T20:23:10.264Z,6.07
2023-05-14T20:25:36.678Z,6.40
2023-05-14T20:28:04.286Z,6.75
2023-05-14T20:30:31.019Z,6.47
2023-05-14T20:32:57.750Z,5.80
2023-05-14T20:35:24.371Z,5.93
2023-05-14T20:37:52.221Z,5.70
2023-05-14T20:40:18.851Z,6.30
2023-05-14T20:42:45.469Z,6.50
2023-05-14T20:45:11.947Z,6.20
2023-05-14T20:47:38.655Z,6.20
2023-05-14T20:50:05.709Z,6.27
2023-05-14T20:52:32.160Z,6.15
2023-05-14T20:55:00.846Z,6.40
2023-05-14T20:57:28.424Z,6.13
2023-05-14T20:59:54.875Z,6.55
2023-05-14T21:02:21.536Z,6.43
2023-05-14T21:04:48.241Z,6.10
2023-05-14T21:07:14.757Z,6.63
2023-05-14T21:09:41.184Z,6.80
2023-05-14T21:12:08.310Z,7.13
2023-05-14T21:14:34.769Z,7.00
2023-05-14T21:17:01.212Z,6.97
2023-05-14T21:19:27.614Z,7.15
2023-05-14T21:21:54.007Z,7.38
2023-05-14T21:24:20.541Z,7.18
2023-05-14T21:26:46.980Z,6.73
2023-05-14T21:29:13.466Z,7.40
2023-05-14T21:31:39.997Z,7.60
2023-05-14T21:34:06.427Z,7.15
2023-05-14T21:36:33.076Z,7.82
2023-05-14T21:38:59.497Z,7.40
2023-05-14T21:41:25.925Z,8.18
2023-05-14T21:43:52.588Z,8.40
2023-05-14T21:46:19.150Z,9.07
2023-05-14T21:48:45.762Z,8.70
2023-05-14T21:51:12.260Z,9.13
2023-05-14T21:53:38.700Z,8.90
2023-05-14T21:56:06.088Z,9.00
2023-05-14T21:58:32.619Z,9.25
2023-05-14T22:00:59.078Z,9.18
2023-05-14T22:03:25.738Z,9.03
2023-05-14T22:05:53.156Z,9.27
2023-05-14T22:08:19.607Z,9.23
2023-05-14T22:10:46.948Z,9.43
2023-05-14T22:13:13.379Z,9.32
2023-05-14T22:15:39.874Z,9.50
2023-05-14T22:18:06.927Z,9.50
2023-05-14T22:20:33.395Z,10.05
2023-05-14T22:22:59.810Z,10.35
2023-05-14T22:25:26.424Z,9.60
2023-05-14T22:27:53.083Z,10.67
2023-05-14T22:30:19.544Z,10.95
2023-05-14T22:32:46.117Z,10.75
2023-05-14T22:35:12.711Z,10.65
2023-05-14T22:37:39.123Z,10.82
2023-05-14T22:40:07.371Z,11.77
2023-05-14T22:42:33.823Z,11.27
2023-05-14T22:45:00.284Z,11.20
2023-05-14T22:47:26.936Z,11.63
2023-05-14T22:49:53.368Z,11.48
2023-05-14T22:52:19.864Z,11.40
2023-05-14T22:54:46.694Z,11.57
2023-05-14T22:57:13.208Z,11.80
2023-05-14T22:59:39.725Z,11.65
2023-05-14T23:02:06.801Z,12.45
2023-05-14T23:04:33.492Z,11.27
2023-05-14T23:07:00.047Z,11.90
2023-05-14T23:09:26.584Z,11.80
2023-05-14T23:11:53.126Z,10.95
2023-05-14T23:14:19.708Z,12.25
2023-05-14T23:16:46.190Z,12.07
2023-05-14T23:19:12.999Z,11.38
2023-05-14T23:21:39.534Z,11.75
2023-05-14T23:24:06.253Z,12.43
2023-05-14T23:26:32.763Z,12.00
2023-05-14T23:28:59.169Z,11.43
2023-05-14T23:31:25.711Z,11.82
2023-05-14T23:33:52.395Z,12.13
2023-05-14T23:36:18.904Z,12.13
2023-05-14T23:38:45.808Z,12.23
2023-05-14T23:41:12.222Z,12.50
2023-05-14T23:43:38.658Z,12.25
2023-05-14T23:46:05.382Z,12.18
2023-05-14T23:48:31.956Z,12.00
2023-05-14T23:50:58.416Z,12.05
2023-05-14T23:53:24.974Z,12.20
2023-05-14T23:55:51.615Z,12.15
2023-05-14T23:58:18.209Z,12.43
